Time,TemperatureF,DewpointF,PressureIn,WindDirection,WindDirectionDegrees,WindSpeedMPH,WindSpeedGustMPH,Humidity,HourlyPrecipIn,Conditions,Clouds,dailyrainin,SoftwareType,DateUTC
2014-01-02 00:01:00,26.6,16.1,30.32,ENE,67,0.0,0.0,64,0.00,,,0.00,WUHU21623XXSP,2014-01-02 05:01:00,
2014-01-02 00:02:00,26.8,16.3,30.31,SE,135,0.0,0.0,64,0.00,,,0.00,WUHU21623XXSP,2014-01-02 05:02:00,
2014-01-02 00:07:00,26.7,16.2,30.32,NE,45,0.0,0.0,64,0.00,,,0.00,WUHU21623XXSP,2014-01-02 05:07:00,
2014-01-02 00:12:00,26.7,16.2,30.31,North,0,0.0,0.0,64,0.00,,,0.00,WUHU21623XXSP,2014-01-02 05:12:00,
2014-01-02 00:17:00,26.8,16.3,30.31,NNW,337,0.0,0.0,64,0.00,,,0.00,WUHU21623XXSP,2014-01-02 05:17:00,
2014-01-02 00:22:00,26.8,16.3,30.32,North,0,0.0,0.0,64,0.00,,,0.00,WUHU21623XXSP,2014-01-02 05:22:00,
2014-01-02 00:27:00,26.7,16.3,30.32,NE,45,0.0,0.0,64,0.00,,,0.00,WUHU21623XXSP,2014-01-02 05:27:00,
2014-01-02 00:32:00,26.7,16.2,30.32,NE,45,0.0,0.0,64,0.00,,,0.00,WUHU21623XXSP,2014-01-02 05:32:00,
2014-01-02 00:37:00,26.7,16.2,30.31,NE,45,0.0,0.0,64,0.00,,,0.00,WUHU21623XXSP,2014-01-02 05:37:00,
2014-01-02 00:42:00,26.8,16.3,30.31,East,90,0.0,0.0,64,0.00,,,0.00,WUHU21623XXSP,2014-01-02 05:42:00,
2014-01-02 00:47:00,26.6,16.1,30.31,East,90,0.0,0.0,64,0.00,,,0.00,WUHU21623XXSP,2014-01-02 05:47:00,
2014-01-02 00:52:00,26.5,16.1,30.30,East,90,0.0,0.0,64,0.00,,,0.00,WUHU21623XXSP,2014-01-02 05:52:00,
2014-01-02 00:57:00,26.5,16.0,30.31,NW,315,0.0,0.0,64,0.00,,,0.00,WUHU21623XXSP,2014-01-02 05:57:00,
2014-01-02 01:02:00,26.5,16.0,30.30,North,0,0.0,0.0,64,0.00,,,0.00,WUHU21623XXSP,2014-01-02 06:02:00,
2014-01-02 01:07:00,26.4,15.9,30.31,NNE,22,0.0,0.0,64,0.00,,,0.00,WUHU21623XXSP,2014-01-02 06:07:00,
2014-01-02 01:12:00,26.4,15.9,30.30,NNE,22,0.0,0.0,64,0.00,,,0.00,WUHU21623XXSP,2014-01-02 06:12:00,
2014-01-02 01:17:00,26.3,15.9,30.30,SE,135,0.0,0.0,64,0.00,,,0.00,WUHU21623XXSP,2014-01-02 06:17:00,
2014-01-02 01:22:00,26.3,15.8,30.30,North,0,0.0,0.0,64,0.00,,,0.00,WUHU21623XXSP,2014-01-02 06:22:00,
2014-01-02 01:27:00,26.2,15.8,30.30,NNW,337,0.0,0.0,64,0.00,,,0.00,WUHU21623XXSP,2014-01-02 06:27:00,
2014-01-02 01:32:00,26.2,15.7,30.30,ESE,112,0.0,0.0,64,0.00,,,0.00,WUHU21623XXSP,2014-01-02 06:32:00,
2014-01-02 01:37:00,26.0,15.5,30.30,North,0,0.0,0.0,64,0.00,,,0.00,WUHU21623XXSP,2014-01-02 06:37:00,
2014-01-02 01:42:00,25.9,15.5,30.30,NE,45,0.0,0.0,64,0.00,,,0.00,WUHU21623XXSP,2014-01-02 06:42:00,
2014-01-02 01:47:00,25.9,15.4,30.29,ENE,67,0.0,0.0,64,0.00,,,0.00,WUHU21623XXSP,2014-01-02 06:47:00,
2014-01-02 01:52:00,25.6,15.6,30.29,North,0,0.0,1.3,65,0.00,,,0.00,WUHU21623XXSP,2014-01-02 06:52:00,
2014-01-02 01:57:00,25.6,15.9,30.30,NNE,22,0.0,1.3,66,0.00,,,0.00,WUHU21623XXSP,2014-01-02 06:57:00,
2014-01-02 02:02:00,25.6,15.8,30.29,NNE,22,0.0,0.0,66,0.00,,,0.00,WUHU21623XXSP,2014-01-02 07:02:00,
2014-01-02 02:07:00,25.5,16.1,30.30,NNW,337,0.0,0.0,67,0.00,,,0.00,WUHU21623XXSP,2014-01-02 07:07:00,
2014-01-02 02:12:00,25.5,16.1,30.30,East,90,0.0,0.0,67,0.00,,,0.00,WUHU21623XXSP,2014-01-02 07:12:00,
2014-01-02 02:17:00,25.4,16.1,30.29,NNE,22,0.0,0.0,67,0.00,,,0.00,WUHU21623XXSP,2014-01-02 07:17:00,
2014-01-02 02:22:00,25.4,16.4,30.29,North,0,0.0,0.0,68,0.00,,,0.00,WUHU21623XXSP,2014-01-02 07:22:00,
2014-01-02 02:27:00,25.4,16.7,30.29,NNE,22,0.0,0.0,69,0.00,,,0.00,WUHU21623XXSP,2014-01-02 07:27:00,
2014-01-02 02:32:00,25.5,16.8,30.29,NNE,22,0.0,0.0,69,0.00,,,0.00,WUHU21623XXSP,2014-01-02 07:32:00,
2014-01-02 02:37:00,25.5,16.8,30.29,North,0,0.0,0.0,69,0.00,,,0.00,WUHU21623XXSP,2014-01-02 07:37:00,
2014-01-02 02:42:00,25.4,16.7,30.29,ENE,67,0.0,0.0,69,0.00,,,0.00,WUHU21623XXSP,2014-01-02 07:42:00,
2014-01-02 02:47:00,25.4,16.7,30.29,NE,45,0.0,0.0,69,0.00,,,0.00,WUHU21623XXSP,2014-01-02 07:47:00,
2014-01-02 02:52:00,25.4,17.0,30.28,East,90,0.0,0.0,70,0.00,,,0.00,WUHU21623XXSP,2014-01-02 07:52:00,
2014-01-02 02:57:00,25.5,17.2,30.29,NNW,337,0.0,0.0,70,0.00,,,0.00,WUHU21623XXSP,2014-01-02 07:57:00,
2014-01-02 03:02:00,25.5,17.1,30.29,ESE,112,0.0,0.0,70,0.00,,,0.00,WUHU21623XXSP,2014-01-02 08:02:00,
2014-01-02 03:07:00,25.5,17.1,30.29,NE,45,0.0,0.0,70,0.00,,,0.00,WUHU21623XXSP,2014-01-02 08:07:00,
2014-01-02 03:12:00,25.6,17.6,30.29,NE,45,0.0,0.0,71,0.00,,,0.00,WUHU21623XXSP,2014-01-02 08:12:00,
2014-01-02 03:17:00,25.6,17.5,30.29,NNW,337,0.0,0.0,71,0.00,,,0.00,WUHU21623XXSP,2014-01-02 08:17:00,
2014-01-02 03:22:00,25.5,17.5,30.28,North,0,0.0,0.0,71,0.00,,,0.00,WUHU21623XXSP,2014-01-02 08:22:00,
2014-01-02 03:27:00,25.7,17.6,30.28,North,0,0.0,0.0,71,0.00,,,0.00,WUHU21623XXSP,2014-01-02 08:27:00,
2014-01-02 03:32:00,25.8,17.7,30.28,NNE,22,0.0,0.0,71,0.00,,,0.00,WUHU21623XXSP,2014-01-02 08:32:00,
2014-01-02 03:37:00,25.6,17.6,30.27,ENE,67,0.0,0.0,71,0.00,,,0.00,WUHU21623XXSP,2014-01-02 08:37:00,
2014-01-02 03:42:00,25.7,18.0,30.27,North,0,0.0,0.0,72,0.00,,,0.00,WUHU21623XXSP,2014-01-02 08:42:00,
2014-01-02 03:47:00,25.7,17.9,30.27,NE,45,0.0,0.0,72,0.00,,,0.00,WUHU21623XXSP,2014-01-02 08:47:00,
2014-01-02 03:52:00,25.6,17.9,30.27,NE,45,0.0,0.0,72,0.00,,,0.00,WUHU21623XXSP,2014-01-02 08:52:00,
2014-01-02 03:57:00,25.3,17.6,30.27,North,0,0.0,0.0,72,0.00,,,0.00,WUHU21623XXSP,2014-01-02 08:57:00,
2014-01-02 04:02:00,25.6,18.1,30.27,NNE,22,0.0,0.0,73,0.00,,,0.00,WUHU21623XXSP,2014-01-02 09:02:00,
2014-01-02 04:07:00,25.5,18.1,30.27,NNE,22,0.0,0.0,73,0.00,,,0.00,WUHU21623XXSP,2014-01-02 09:07:00,
2014-01-02 04:12:00,25.5,18.1,30.27,NNE,22,0.0,0.0,73,0.00,,,0.00,WUHU21623XXSP,2014-01-02 09:12:00,
2014-01-02 04:17:00,25.5,18.0,30.26,NNW,337,0.0,0.0,73,0.00,,,0.00,WUHU21623XXSP,2014-01-02 09:17:00,
2014-01-02 04:22:00,25.3,17.9,30.27,ENE,67,0.0,0.0,73,0.00,,,0.00,WUHU21623XXSP,2014-01-02 09:22:00,
2014-01-02 04:27:00,25.1,17.7,30.27,North,0,0.0,0.0,73,0.00,,,0.00,WUHU21623XXSP,2014-01-02 09:27:00,
2014-01-02 04:32:00,25.1,17.7,30.26,NNE,22,0.0,0.0,73,0.00,,,0.00,WUHU21623XXSP,2014-01-02 09:32:00,
2014-01-02 04:37:00,25.2,17.8,30.26,NNE,22,0.0,0.0,73,0.00,,,0.00,WUHU21623XXSP,2014-01-02 09:37:00,
2014-01-02 04:42:00,25.3,17.9,30.25,East,90,0.0,0.0,73,0.00,,,0.00,WUHU21623XXSP,2014-01-02 09:42:00,
2014-01-02 04:47:00,25.2,17.8,30.25,NE,45,0.0,0.0,73,0.00,,,0.00,WUHU21623XXSP,2014-01-02 09:47:00,
2014-01-02 04:52:00,24.9,17.9,30.25,NNE,22,0.0,0.0,74,0.00,,,0.00,WUHU21623XXSP,2014-01-02 09:52:00,
2014-01-02 04:57:00,24.9,17.8,30.25,North,0,0.0,0.0,74,0.00,,,0.00,WUHU21623XXSP,2014-01-02 09:57:00,
2014-01-02 05:02:00,24.9,17.8,30.25,NNE,22,0.0,0.0,74,0.00,,,0.00,WUHU21623XXSP,2014-01-02 10:02:00,
2014-01-02 05:07:00,24.8,17.8,30.25,ENE,67,0.0,0.0,74,0.00,,,0.00,WUHU21623XXSP,2014-01-02 10:07:00,
2014-01-02 05:12:00,24.8,17.7,30.25,NNW,337,0.0,0.0,74,0.00,,,0.00,WUHU21623XXSP,2014-01-02 10:12:00,
2014-01-02 05:17:00,24.8,18.0,30.25,North,0,0.0,0.0,75,0.00,,,0.00,WUHU21623XXSP,2014-01-02 10:17:00,
2014-01-02 05:22:00,24.7,18.0,30.24,North,0,0.0,0.0,75,0.00,,,0.00,WUHU21623XXSP,2014-01-02 10:22:00,
2014-01-02 05:27:00,24.7,17.9,30.23,NE,45,0.0,0.0,75,0.00,,,0.00,WUHU21623XXSP,2014-01-02 10:27:00,
2014-01-02 05:32:00,24.7,17.9,30.23,NNE,22,0.0,0.0,75,0.00,,,0.00,WUHU21623XXSP,2014-01-02 10:32:00,
2014-01-02 05:37:00,24.5,17.7,30.23,SE,135,0.0,0.0,75,0.00,,,0.00,WUHU21623XXSP,2014-01-02 10:37:00,
2014-01-02 05:42:00,24.4,18.0,30.24,ENE,67,0.0,0.0,76,0.00,,,0.00,WUHU21623XXSP,2014-01-02 10:42:00,
2014-01-02 05:47:00,24.4,17.9,30.23,NW,315,0.0,0.0,76,0.00,,,0.00,WUHU21623XXSP,2014-01-02 10:47:00,
2014-01-02 05:52:00,24.4,17.9,30.23,ESE,112,0.0,0.0,76,0.00,,,0.00,WUHU21623XXSP,2014-01-02 10:52:00,
2014-01-02 05:57:00,24.1,17.7,30.24,NNE,22,0.0,0.0,76,0.00,,,0.00,WUHU21623XXSP,2014-01-02 10:57:00,
2014-01-02 06:02:00,23.9,17.5,30.24,East,90,0.0,0.0,76,0.00,,,0.00,WUHU21623XXSP,2014-01-02 11:02:00,
2014-01-02 06:07:00,23.9,17.7,30.24,NNW,337,0.0,0.0,77,0.00,,,0.00,WUHU21623XXSP,2014-01-02 11:07:00,
2014-01-02 06:12:00,23.9,17.7,30.24,SSE,157,0.0,0.0,77,0.00,,,0.00,WUHU21623XXSP,2014-01-02 11:12:00,
2014-01-02 06:17:00,23.8,17.7,30.23,SSE,157,0.0,0.0,77,0.00,,,0.00,WUHU21623XXSP,2014-01-02 11:17:00,
2014-01-02 06:22:00,23.8,18.0,30.23,North,0,0.0,0.0,78,0.00,,,0.00,WUHU21623XXSP,2014-01-02 11:22:00,
2014-01-02 06:27:00,23.8,17.9,30.23,East,90,0.0,0.0,78,0.00,,,0.00,WUHU21623XXSP,2014-01-02 11:27:00,
2014-01-02 06:32:00,23.8,17.9,30.23,North,0,2.2,2.2,78,0.00,,,0.00,WUHU21623XXSP,2014-01-02 11:32:00,
2014-01-02 06:37:00,23.7,17.9,30.23,ESE,112,1.6,2.2,78,0.00,,,0.00,WUHU21623XXSP,2014-01-02 11:37:00,
2014-01-02 06:42:00,23.7,17.9,30.23,ESE,112,2.7,2.7,78,0.00,,,0.00,WUHU21623XXSP,2014-01-02 11:42:00,
2014-01-02 06:47:00,23.6,17.8,30.22,ENE,67,2.2,2.7,78,0.00,,,0.00,WUHU21623XXSP,2014-01-02 11:47:00,
2014-01-02 06:52:00,23.6,17.7,30.22,ENE,67,2.9,2.9,78,0.00,,,0.00,WUHU21623XXSP,2014-01-02 11:52:00,
2014-01-02 06:57:00,23.5,18.0,30.22,NE,45,2.0,2.9,79,0.00,,,0.00,WUHU21623XXSP,2014-01-02 11:57:00,
2014-01-02 07:02:00,23.5,18.0,30.22,NNE,22,0.0,2.0,79,0.00,,,0.00,WUHU21623XXSP,2014-01-02 12:02:00,
2014-01-02 07:07:00,23.6,18.1,30.22,NW,315,0.0,0.0,79,0.00,,,0.00,WUHU21623XXSP,2014-01-02 12:07:00,
2014-01-02 07:12:00,23.5,17.9,30.22,NW,315,0.0,0.0,79,0.00,,,0.00,WUHU21623XXSP,2014-01-02 12:12:00,
2014-01-02 07:17:00,23.6,18.0,30.22,NNE,22,1.6,1.6,79,0.00,,,0.00,WUHU21623XXSP,2014-01-02 12:17:00,
2014-01-02 07:22:00,23.5,18.0,30.22,NW,315,0.0,1.6,79,0.00,,,0.00,WUHU21623XXSP,2014-01-02 12:22:00,
2014-01-02 07:27:00,23.4,17.9,30.22,East,90,0.0,3.6,79,0.00,,,0.00,WUHU21623XXSP,2014-01-02 12:27:00,
2014-01-02 07:32:00,23.4,17.9,30.22,NE,45,0.0,3.6,79,0.00,,,0.00,WUHU21623XXSP,2014-01-02 12:32:00,
2014-01-02 07:37:00,23.5,17.9,30.22,North,0,0.0,0.0,79,0.00,,,0.00,WUHU21623XXSP,2014-01-02 12:37:00,
2014-01-02 07:42:00,23.5,17.9,30.21,East,90,0.0,0.0,79,0.00,,,0.00,WUHU21623XXSP,2014-01-02 12:42:00,
2014-01-02 07:47:00,23.5,17.9,30.22,ESE,112,2.2,2.2,79,0.00,,,0.00,WUHU21623XXSP,2014-01-02 12:47:00,
2014-01-02 07:52:00,23.4,17.9,30.22,NW,315,2.0,2.2,79,0.00,,,0.00,WUHU21623XXSP,2014-01-02 12:52:00,
2014-01-02 07:57:00,23.4,17.9,30.21,NE,45,0.0,2.2,79,0.00,,,0.00,WUHU21623XXSP,2014-01-02 12:57:00,
2014-01-02 08:02:00,23.4,17.9,30.21,North,0,3.1,3.1,79,0.00,,,0.00,WUHU21623XXSP,2014-01-02 13:02:00,
2014-01-02 08:07:00,23.4,17.8,30.21,ENE,67,0.0,3.1,79,0.00,,,0.00,WUHU21623XXSP,2014-01-02 13:07:00,
2014-01-02 08:12:00,23.4,17.8,30.20,ENE,67,0.0,3.1,79,0.00,,,0.00,WUHU21623XXSP,2014-01-02 13:12:00,
2014-01-02 08:17:00,23.6,18.0,30.20,ENE,67,0.0,0.0,79,0.00,,,0.00,WUHU21623XXSP,2014-01-02 13:17:00,
2014-01-02 08:22:00,23.5,18.3,30.20,NNW,337,4.5,4.5,80,0.00,,,0.00,WUHU21623XXSP,2014-01-02 13:22:00,
2014-01-02 08:27:00,23.5,18.3,30.20,NW,315,0.0,4.5,80,0.00,,,0.00,WUHU21623XXSP,2014-01-02 13:27:00,
2014-01-02 08:32:00,23.5,18.2,30.20,ENE,67,0.0,2.2,80,0.00,,,0.00,WUHU21623XXSP,2014-01-02 13:32:00,
2014-01-02 08:37:00,23.5,18.2,30.20,ESE,112,0.0,0.0,80,0.00,,,0.00,WUHU21623XXSP,2014-01-02 13:37:00,
2014-01-02 08:42:00,23.5,18.2,30.21,SE,135,0.0,0.0,80,0.00,,,0.00,WUHU21623XXSP,2014-01-02 13:42:00,
2014-01-02 08:47:00,23.5,18.2,30.21,ENE,67,4.3,4.3,80,0.00,,,0.00,WUHU21623XXSP,2014-01-02 13:47:00,
2014-01-02 08:53:00,23.7,18.7,30.20,NE,45,0.0,4.3,81,0.00,,,0.00,WUHU21623XXSP,2014-01-02 13:53:00,
2014-01-02 08:58:00,23.6,18.7,30.20,SE,135,1.3,1.3,81,0.00,,,0.00,WUHU21623XXSP,2014-01-02 13:58:00,
2014-01-02 09:02:00,23.8,18.8,30.20,East,90,6.3,6.3,81,0.00,,,0.00,WUHU21623XXSP,2014-01-02 14:02:00,
2014-01-02 09:08:00,23.8,18.8,30.20,ENE,67,0.0,6.3,81,0.00,,,0.00,WUHU21623XXSP,2014-01-02 14:08:00,
2014-01-02 09:12:00,23.8,18.8,30.20,East,90,2.7,2.7,81,0.00,,,0.00,WUHU21623XXSP,2014-01-02 14:12:00,
2014-01-02 09:17:00,23.8,18.8,30.20,ENE,67,2.5,2.7,81,0.00,,,0.00,WUHU21623XXSP,2014-01-02 14:17:00,
2014-01-02 09:22:00,23.8,18.8,30.19,NNE,22,2.5,6.5,81,0.00,,,0.00,WUHU21623XXSP,2014-01-02 14:22:00,
2014-01-02 09:27:00,24.0,19.0,30.18,NNW,337,0.0,6.5,81,0.00,,,0.00,WUHU21623XXSP,2014-01-02 14:27:00,
2014-01-02 09:32:00,24.1,19.1,30.18,NW,315,0.0,4.0,81,0.00,,,0.00,WUHU21623XXSP,2014-01-02 14:32:00,
2014-01-02 09:37:00,24.1,19.1,30.18,ENE,67,0.0,2.0,81,0.00,,,0.00,WUHU21623XXSP,2014-01-02 14:37:00,
2014-01-02 09:42:00,24.1,19.1,30.17,SSW,202,2.5,2.5,81,0.00,,,0.00,WUHU21623XXSP,2014-01-02 14:42:00,
2014-01-02 09:47:00,24.1,19.1,30.17,SW,225,0.0,2.5,81,0.00,,,0.00,WUHU21623XXSP,2014-01-02 14:47:00,
2014-01-02 09:52:00,24.2,19.2,30.17,SE,135,2.9,2.9,81,0.00,,,0.00,WUHU21623XXSP,2014-01-02 14:52:00,
2014-01-02 09:58:00,24.2,19.2,30.17,ESE,112,1.6,2.9,81,0.00,,,0.00,WUHU21623XXSP,2014-01-02 14:58:00,
2014-01-02 10:03:00,24.2,19.2,30.17,West,270,2.9,2.9,81,0.00,,,0.00,WUHU21623XXSP,2014-01-02 15:03:00,
2014-01-02 10:08:00,24.4,19.4,30.16,ENE,67,0.0,3.8,81,0.00,,,0.00,WUHU21623XXSP,2014-01-02 15:08:00,
2014-01-02 10:13:00,24.6,19.6,30.16,East,90,2.0,3.8,81,0.00,,,0.00,WUHU21623XXSP,2014-01-02 15:13:00,
2014-01-02 10:17:00,24.6,19.6,30.16,SSW,202,0.0,2.0,81,0.00,,,0.00,WUHU21623XXSP,2014-01-02 15:17:00,
2014-01-02 10:23:00,24.8,19.8,30.15,SSE,157,0.0,4.3,81,0.00,,,0.00,WUHU21623XXSP,2014-01-02 15:23:00,
2014-01-02 10:28:00,24.8,19.8,30.15,North,0,0.0,4.3,81,0.00,,,0.00,WUHU21623XXSP,2014-01-02 15:28:00,
2014-01-02 10:33:00,24.9,19.9,30.14,ENE,67,2.0,2.0,81,0.00,,,0.00,WUHU21623XXSP,2014-01-02 15:33:00,
2014-01-02 10:38:00,24.9,19.9,30.14,East,90,0.0,2.0,81,0.00,,,0.00,WUHU21623XXSP,2014-01-02 15:38:00,
2014-01-02 10:43:00,25.1,20.1,30.13,ESE,112,6.7,6.7,81,0.00,,,0.00,WUHU21623XXSP,2014-01-02 15:43:00,
2014-01-02 10:47:00,25.1,20.1,30.13,East,90,0.0,6.7,81,0.00,,,0.00,WUHU21623XXSP,2014-01-02 15:47:00,
2014-01-02 10:52:00,25.3,20.6,30.12,NNW,337,1.3,3.4,82,0.00,,,0.00,WUHU21623XXSP,2014-01-02 15:52:00,
2014-01-02 10:57:00,25.5,20.8,30.11,NE,45,0.0,3.4,82,0.00,,,0.00,WUHU21623XXSP,2014-01-02 15:57:00,
2014-01-02 11:02:00,25.5,20.8,30.11,NNE,22,7.2,7.2,82,0.00,,,0.00,WUHU21623XXSP,2014-01-02 16:02:00,
2014-01-02 11:08:00,25.7,21.0,30.11,SSE,157,0.0,7.2,82,0.00,,,0.00,WUHU21623XXSP,2014-01-02 16:08:00,
2014-01-02 11:12:00,25.7,21.0,30.10,ESE,112,6.9,6.9,82,0.00,,,0.00,WUHU21623XXSP,2014-01-02 16:12:00,
2014-01-02 11:18:00,25.7,21.0,30.09,NNE,22,8.1,8.1,82,0.00,,,0.00,WUHU21623XXSP,2014-01-02 16:18:00,
2014-01-02 11:22:00,25.7,21.0,30.09,North,0,3.8,8.1,82,0.00,,,0.00,WUHU21623XXSP,2014-01-02 16:22:00,
2014-01-02 11:27:00,25.5,21.0,30.09,ENE,67,0.0,3.8,83,0.00,,,0.00,WUHU21623XXSP,2014-01-02 16:27:00,
2014-01-02 11:32:00,25.5,21.0,30.08,NE,45,0.9,3.6,83,0.00,,,0.00,WUHU21623XXSP,2014-01-02 16:32:00,
2014-01-02 11:38:00,25.5,21.1,30.08,SE,135,0.0,3.8,83,0.00,,,0.00,WUHU21623XXSP,2014-01-02 16:38:00,
2014-01-02 11:42:00,25.5,21.1,30.08,SE,135,2.7,3.8,83,0.00,,,0.00,WUHU21623XXSP,2014-01-02 16:42:00,
2014-01-02 11:47:00,25.5,21.1,30.08,NNE,22,1.8,3.8,83,0.00,,,0.00,WUHU21623XXSP,2014-01-02 16:47:00,
2014-01-02 11:52:00,25.5,21.3,30.07,SE,135,1.1,3.8,84,0.00,,,0.00,WUHU21623XXSP,2014-01-02 16:52:00,
2014-01-02 11:57:00,25.5,21.3,30.07,East,90,5.1,5.8,84,0.00,,,0.00,WUHU21623XXSP,2014-01-02 16:57:00,
2014-01-02 12:02:00,25.5,21.4,30.06,South,180,2.2,5.8,84,0.00,,,0.00,WUHU21623XXSP,2014-01-02 17:02:00,
2014-01-02 12:07:00,25.3,21.2,30.05,NNE,22,6.7,8.1,84,0.00,,,0.00,WUHU21623XXSP,2014-01-02 17:07:00,
2014-01-02 12:12:00,25.1,21.0,30.05,ENE,67,3.1,8.1,84,0.00,,,0.00,WUHU21623XXSP,2014-01-02 17:12:00,
2014-01-02 12:17:00,25.2,21.0,30.04,NNE,22,2.9,3.1,84,0.00,,,0.00,WUHU21623XXSP,2014-01-02 17:17:00,
2014-01-02 12:22:00,25.0,20.8,30.04,ESE,112,2.2,6.0,84,0.00,,,0.00,WUHU21623XXSP,2014-01-02 17:22:00,
2014-01-02 12:27:00,25.0,20.8,30.03,North,0,0.0,12.8,84,0.00,,,0.00,WUHU21623XXSP,2014-01-02 17:27:00,
2014-01-02 12:32:00,24.9,20.7,30.03,North,0,6.7,12.8,84,0.00,,,0.00,WUHU21623XXSP,2014-01-02 17:32:00,
2014-01-02 12:37:00,24.9,20.7,30.02,NE,45,5.8,6.7,84,0.00,,,0.00,WUHU21623XXSP,2014-01-02 17:37:00,
2014-01-02 12:42:00,24.9,20.7,30.02,SSE,157,3.4,7.6,84,0.00,,,0.00,WUHU21623XXSP,2014-01-02 17:42:00,
2014-01-02 12:47:00,24.9,20.7,30.02,NE,45,4.5,7.6,84,0.00,,,0.00,WUHU21623XXSP,2014-01-02 17:47:00,
2014-01-02 12:52:00,24.9,20.7,30.01,NE,45,4.5,8.1,84,0.00,,,0.00,WUHU21623XXSP,2014-01-02 17:52:00,
2014-01-02 12:57:00,24.7,20.6,30.02,ENE,67,2.2,8.1,84,0.00,,,0.00,WUHU21623XXSP,2014-01-02 17:57:00,
2014-01-02 13:02:00,24.7,20.6,30.02,NNE,22,0.0,6.7,84,0.00,,,0.00,WUHU21623XXSP,2014-01-02 18:02:00,
2014-01-02 13:07:00,24.7,20.6,30.01,ESE,112,5.1,5.1,84,0.00,,,0.00,WUHU21623XXSP,2014-01-02 18:07:00,
2014-01-02 13:12:00,24.8,20.6,30.01,ENE,67,0.0,7.4,84,0.00,,,0.00,WUHU21623XXSP,2014-01-02 18:12:00,
2014-01-02 13:17:00,24.8,20.6,30.01,East,90,2.0,7.4,84,0.00,,,0.00,WUHU21623XXSP,2014-01-02 18:17:00,
2014-01-02 13:22:00,24.8,20.9,30.00,ESE,112,0.0,2.0,85,0.00,,,0.00,WUHU21623XXSP,2014-01-02 18:22:00,
2014-01-02 13:27:00,24.8,20.9,30.00,ENE,67,4.5,7.6,85,0.00,,,0.00,WUHU21623XXSP,2014-01-02 18:27:00,
2014-01-02 13:32:00,24.8,20.9,29.99,NE,45,4.9,7.6,85,0.00,,,0.00,WUHU21623XXSP,2014-01-02 18:32:00,
2014-01-02 13:37:00,24.8,20.9,29.99,East,90,0.7,6.5,85,0.00,,,0.00,WUHU21623XXSP,2014-01-02 18:37:00,
2014-01-02 13:42:00,24.8,20.9,29.99,SSW,202,1.3,6.5,85,0.00,,,0.00,WUHU21623XXSP,2014-01-02 18:42:00,
2014-01-02 13:47:00,24.9,21.0,29.98,NNE,22,7.8,7.8,85,0.00,,,0.00,WUHU21623XXSP,2014-01-02 18:47:00,
2014-01-02 13:52:00,24.9,21.0,29.99,North,0,2.2,13.0,85,0.00,,,0.00,WUHU21623XXSP,2014-01-02 18:52:00,
2014-01-02 13:57:00,24.9,21.0,29.99,SW,225,0.0,13.0,85,0.00,,,0.00,WUHU21623XXSP,2014-01-02 18:57:00,
2014-01-02 14:02:00,25.1,21.2,29.99,NW,315,1.6,3.6,85,0.00,,,0.00,WUHU21623XXSP,2014-01-02 19:02:00,
2014-01-02 14:07:00,24.9,21.0,29.99,NE,45,4.3,4.9,85,0.00,,,0.00,WUHU21623XXSP,2014-01-02 19:07:00,
2014-01-02 14:12:00,25.1,21.2,29.99,SE,135,8.1,8.1,85,0.00,,,0.00,WUHU21623XXSP,2014-01-02 19:12:00,
2014-01-02 14:17:00,25.2,21.3,29.99,East,90,3.4,8.1,85,0.00,,,0.00,WUHU21623XXSP,2014-01-02 19:17:00,
2014-01-02 14:22:00,25.2,21.3,29.98,ESE,112,0.0,4.9,85,0.00,,,0.00,WUHU21623XXSP,2014-01-02 19:22:00,
2014-01-02 14:27:00,25.2,21.3,29.97,NE,45,1.8,4.9,85,0.00,,,0.00,WUHU21623XXSP,2014-01-02 19:27:00,
2014-01-02 14:32:00,25.3,21.4,29.97,NNW,337,1.1,10.7,85,0.00,,,0.00,WUHU21623XXSP,2014-01-02 19:32:00,
2014-01-02 14:37:00,25.3,21.4,29.97,SE,135,1.3,10.7,85,0.00,,,0.00,WUHU21623XXSP,2014-01-02 19:37:00,
2014-01-02 14:42:00,25.3,21.4,29.97,NNE,22,2.9,2.9,85,0.00,,,0.00,WUHU21623XXSP,2014-01-02 19:42:00,
2014-01-02 14:47:00,25.4,21.5,29.97,ESE,112,2.0,2.9,85,0.00,,,0.00,WUHU21623XXSP,2014-01-02 19:47:00,
2014-01-02 14:52:00,25.3,21.4,29.98,NNW,337,3.6,5.4,85,0.00,,,0.00,WUHU21623XXSP,2014-01-02 19:52:00,
2014-01-02 14:57:00,25.4,21.5,29.97,NNE,22,7.8,7.8,85,0.00,,,0.00,WUHU21623XXSP,2014-01-02 19:57:00,
2014-01-02 15:02:00,25.4,21.5,29.97,East,90,4.5,7.8,85,0.00,,,0.00,WUHU21623XXSP,2014-01-02 20:02:00,
2014-01-02 15:07:00,25.5,21.6,29.97,East,90,2.7,4.7,85,0.00,,,0.00,WUHU21623XXSP,2014-01-02 20:07:00,
2014-01-02 15:12:00,25.5,21.6,29.97,ENE,67,0.0,4.7,85,0.00,,,0.00,WUHU21623XXSP,2014-01-02 20:12:00,
2014-01-02 15:17:00,25.5,21.6,29.97,East,90,0.0,0.0,85,0.00,,,0.00,WUHU21623XXSP,2014-01-02 20:17:00,
2014-01-02 15:22:00,25.7,21.8,29.96,NE,45,2.2,10.3,85,0.00,,,0.00,WUHU21623XXSP,2014-01-02 20:22:00,
2014-01-02 15:27:00,25.6,21.6,29.95,East,90,3.1,10.3,85,0.00,,,0.00,WUHU21623XXSP,2014-01-02 20:27:00,
2014-01-02 15:32:00,25.8,21.9,29.95,East,90,3.1,3.1,85,0.00,,,0.00,WUHU21623XXSP,2014-01-02 20:32:00,
2014-01-02 15:37:00,25.6,21.7,29.93,NE,45,4.7,9.4,85,0.00,,,0.00,WUHU21623XXSP,2014-01-02 20:37:00,
2014-01-02 15:42:00,25.5,21.6,29.93,ESE,112,3.4,9.4,85,0.00,,,0.00,WUHU21623XXSP,2014-01-02 20:42:00,
2014-01-02 15:47:00,25.6,21.6,29.93,NE,45,6.5,6.5,85,0.00,,,0.00,WUHU21623XXSP,2014-01-02 20:47:00,
2014-01-02 15:52:00,25.6,21.7,29.93,ESE,112,3.1,6.5,85,0.00,,,0.00,WUHU21623XXSP,2014-01-02 20:52:00,
2014-01-02 15:57:00,25.7,21.8,29.92,ENE,67,5.8,5.8,85,0.00,,,0.00,WUHU21623XXSP,2014-01-02 20:57:00,
2014-01-02 16:02:00,25.6,22.0,29.92,NE,45,10.5,10.5,86,0.00,,,0.00,WUHU21623XXSP,2014-01-02 21:02:00,
2014-01-02 16:07:00,25.7,22.0,29.92,East,90,1.8,10.5,86,0.00,,,0.00,WUHU21623XXSP,2014-01-02 21:07:00,
2014-01-02 16:12:00,25.7,22.1,29.93,East,90,0.0,6.3,86,0.00,,,0.00,WUHU21623XXSP,2014-01-02 21:12:00,
2014-01-02 16:17:00,25.7,22.1,29.93,East,90,0.0,2.2,86,0.00,,,0.00,WUHU21623XXSP,2014-01-02 21:17:00,
2014-01-02 16:22:00,25.8,22.1,29.91,NE,45,7.4,7.4,86,0.00,,,0.00,WUHU21623XXSP,2014-01-02 21:22:00,
2014-01-02 16:27:00,25.8,22.1,29.90,SSE,157,0.0,7.4,86,0.00,,,0.00,WUHU21623XXSP,2014-01-02 21:27:00,
2014-01-02 16:32:00,25.8,22.2,29.91,NNE,22,4.0,10.3,86,0.00,,,0.00,WUHU21623XXSP,2014-01-02 21:32:00,
2014-01-02 16:37:00,25.8,22.2,29.91,ENE,67,5.4,10.3,86,0.00,,,0.00,WUHU21623XXSP,2014-01-02 21:37:00,
2014-01-02 16:42:00,25.9,22.2,29.91,NNE,22,2.0,5.4,86,0.00,,,0.00,WUHU21623XXSP,2014-01-02 21:42:00,
2014-01-02 16:47:00,25.9,22.2,29.91,SE,135,2.0,5.4,86,0.00,,,0.00,WUHU21623XXSP,2014-01-02 21:47:00,
2014-01-02 16:52:00,25.7,22.1,29.91,North,0,2.0,4.0,86,0.00,,,0.00,WUHU21623XXSP,2014-01-02 21:52:00,
2014-01-02 16:57:00,26.0,22.3,29.91,SSE,157,6.7,6.7,86,0.00,,,0.00,WUHU21623XXSP,2014-01-02 21:57:00,
2014-01-02 17:02:00,26.0,22.3,29.91,NE,45,2.2,6.7,86,0.00,,,0.00,WUHU21623XXSP,2014-01-02 22:02:00,
2014-01-02 17:07:00,26.0,22.4,29.91,NNE,22,4.7,6.7,86,0.00,,,0.00,WUHU21623XXSP,2014-01-02 22:07:00,
2014-01-02 17:12:00,26.0,22.4,29.91,NNE,22,4.7,4.7,86,0.00,,,0.00,WUHU21623XXSP,2014-01-02 22:12:00,
2014-01-02 17:17:00,25.9,22.2,29.90,ENE,67,3.8,6.3,86,0.00,,,0.00,WUHU21623XXSP,2014-01-02 22:17:00,
2014-01-02 17:22:00,25.9,22.0,29.90,ESE,112,7.4,7.4,85,0.00,,,0.00,WUHU21623XXSP,2014-01-02 22:22:00,
2014-01-02 17:27:00,25.9,22.0,29.90,NNE,22,5.1,7.4,85,0.00,,,0.00,WUHU21623XXSP,2014-01-02 22:27:00,
2014-01-02 17:32:00,26.0,22.1,29.91,South,180,13.4,13.4,85,0.00,,,0.00,WUHU21623XXSP,2014-01-02 22:32:00,
2014-01-02 17:37:00,26.0,22.1,29.91,NNE,22,0.9,13.4,85,0.00,,,0.00,WUHU21623XXSP,2014-01-02 22:37:00,
2014-01-02 17:42:00,26.0,22.1,29.90,NE,45,2.9,9.4,85,0.00,,,0.00,WUHU21623XXSP,2014-01-02 22:42:00,
2014-01-02 17:47:00,26.1,22.2,29.90,SE,135,0.0,14.8,85,0.00,,,0.00,WUHU21623XXSP,2014-01-02 22:47:00,
2014-01-02 17:52:00,25.7,22.1,29.90,ENE,67,0.0,14.8,86,0.00,,,0.00,WUHU21623XXSP,2014-01-02 22:52:00,
2014-01-02 17:57:00,25.7,22.1,29.89,East,90,3.4,11.9,86,0.00,,,0.00,WUHU21623XXSP,2014-01-02 22:57:00,
2014-01-02 18:02:00,26.0,22.3,29.89,SSE,157,0.0,5.4,86,0.00,,,0.00,WUHU21623XXSP,2014-01-02 23:02:00,
2014-01-02 18:07:00,26.0,22.4,29.89,ENE,67,6.5,6.5,86,0.00,,,0.00,WUHU21623XXSP,2014-01-02 23:07:00,
2014-01-02 18:12:00,26.1,22.4,29.89,ENE,67,6.5,6.5,86,0.00,,,0.00,WUHU21623XXSP,2014-01-02 23:12:00,
2014-01-02 18:17:00,25.9,22.2,29.89,NNE,22,1.6,6.5,86,0.00,,,0.00,WUHU21623XXSP,2014-01-02 23:17:00,
2014-01-02 18:22:00,25.9,22.3,29.89,SE,135,1.8,6.0,86,0.00,,,0.00,WUHU21623XXSP,2014-01-02 23:22:00,
2014-01-02 18:27:00,25.9,22.3,29.89,South,180,1.1,6.0,86,0.00,,,0.00,WUHU21623XXSP,2014-01-02 23:27:00,
2014-01-02 18:32:00,26.0,22.6,29.89,SE,135,19.5,19.5,87,0.00,,,0.00,WUHU21623XXSP,2014-01-02 23:32:00,
2014-01-02 18:37:00,26.0,22.7,29.89,SSW,202,3.4,19.5,87,0.00,,,0.00,WUHU21623XXSP,2014-01-02 23:37:00,
2014-01-02 18:42:00,26.1,22.7,29.89,SSE,157,4.7,6.3,87,0.00,,,0.00,WUHU21623XXSP,2014-01-02 23:42:00,
2014-01-02 18:47:00,25.9,22.5,29.89,NE,45,4.7,4.7,87,0.00,,,0.00,WUHU21623XXSP,2014-01-02 23:47:00,
2014-01-02 18:52:00,25.9,22.6,29.89,SE,135,1.8,6.5,87,0.00,,,0.00,WUHU21623XXSP,2014-01-02 23:52:00,
2014-01-02 18:57:00,26.0,22.6,29.89,NE,45,3.1,6.5,87,0.00,,,0.00,WUHU21623XXSP,2014-01-02 23:57:00,
2014-01-02 19:02:00,26.0,22.6,29.88,ENE,67,5.6,5.6,87,0.00,,,0.00,WUHU21623XXSP,2014-01-03 00:02:00,
2014-01-02 19:07:00,26.1,22.7,29.88,ENE,67,5.4,5.6,87,0.00,,,0.00,WUHU21623XXSP,2014-01-03 00:07:00,
2014-01-02 19:12:00,26.0,22.6,29.87,WSW,247,6.3,6.3,87,0.00,,,0.00,WUHU21623XXSP,2014-01-03 00:12:00,
2014-01-02 19:17:00,25.8,22.5,29.87,SE,135,4.0,6.3,87,0.00,,,0.00,WUHU21623XXSP,2014-01-03 00:17:00,
2014-01-02 19:22:00,25.9,22.5,29.86,ENE,67,12.8,12.8,87,0.00,,,0.00,WUHU21623XXSP,2014-01-03 00:22:00,
2014-01-02 19:27:00,25.9,22.5,29.86,SW,225,3.8,12.8,87,0.00,,,0.00,WUHU21623XXSP,2014-01-03 00:27:00,
2014-01-02 19:32:00,25.9,22.6,29.86,North,0,5.1,7.4,87,0.00,,,0.00,WUHU21623XXSP,2014-01-03 00:32:00,
2014-01-02 19:37:00,25.8,22.4,29.86,ENE,67,1.6,8.1,87,0.00,,,0.00,WUHU21623XXSP,2014-01-03 00:37:00,
2014-01-02 19:42:00,25.8,22.5,29.86,East,90,2.5,8.1,87,0.00,,,0.00,WUHU21623XXSP,2014-01-03 00:42:00,
2014-01-02 19:47:00,25.9,22.5,29.85,ESE,112,3.1,3.1,87,0.00,,,0.00,WUHU21623XXSP,2014-01-03 00:47:00,
2014-01-02 19:52:00,25.9,22.5,29.84,SE,135,13.2,13.2,87,0.00,,,0.00,WUHU21623XXSP,2014-01-03 00:52:00,
2014-01-02 19:57:00,25.9,22.6,29.84,SE,135,10.7,13.2,87,0.00,,,0.00,WUHU21623XXSP,2014-01-03 00:57:00,
2014-01-02 20:02:00,26.0,22.6,29.85,SE,135,4.7,10.7,87,0.00,,,0.00,WUHU21623XXSP,2014-01-03 01:02:00,
2014-01-02 20:07:00,26.0,22.7,29.84,ESE,112,5.6,5.6,87,0.00,,,0.00,WUHU21623XXSP,2014-01-03 01:07:00,
2014-01-02 20:12:00,25.9,22.5,29.84,East,90,9.8,9.8,87,0.00,,,0.00,WUHU21623XXSP,2014-01-03 01:12:00,
2014-01-02 20:17:00,25.9,22.5,29.85,ESE,112,3.4,9.8,87,0.00,,,0.00,WUHU21623XXSP,2014-01-03 01:17:00,
2014-01-02 20:22:00,26.0,22.6,29.84,ENE,67,5.8,5.8,87,0.00,,,0.00,WUHU21623XXSP,2014-01-03 01:22:00,
2014-01-02 20:27:00,26.0,22.6,29.84,SE,135,0.0,12.1,87,0.00,,,0.00,WUHU21623XXSP,2014-01-03 01:27:00,
2014-01-02 20:32:00,26.0,22.7,29.84,ESE,112,3.8,12.1,87,0.00,,,0.00,WUHU21623XXSP,2014-01-03 01:32:00,
2014-01-02 20:37:00,26.1,22.7,29.84,ESE,112,0.7,5.4,87,0.00,,,0.00,WUHU21623XXSP,2014-01-03 01:37:00,
2014-01-02 20:42:00,26.1,22.7,29.83,NE,45,11.4,11.4,87,0.00,,,0.00,WUHU21623XXSP,2014-01-03 01:42:00,
2014-01-02 20:47:00,26.2,22.8,29.83,SE,135,1.6,11.4,87,0.00,,,0.00,WUHU21623XXSP,2014-01-03 01:47:00,
2014-01-02 20:52:00,26.2,22.8,29.81,NNE,22,8.3,8.9,87,0.00,,,0.00,WUHU21623XXSP,2014-01-03 01:52:00,
2014-01-02 20:57:00,26.2,22.9,29.82,ESE,112,0.0,8.9,87,0.00,,,0.00,WUHU21623XXSP,2014-01-03 01:57:00,
2014-01-02 21:02:00,26.1,22.7,29.81,East,90,7.8,7.8,87,0.00,,,0.00,WUHU21623XXSP,2014-01-03 02:02:00,
2014-01-02 21:07:00,26.1,22.8,29.80,ENE,67,3.6,7.8,87,0.00,,,0.00,WUHU21623XXSP,2014-01-03 02:07:00,
2014-01-02 21:12:00,26.2,22.8,29.81,West,270,1.8,3.8,87,0.00,,,0.00,WUHU21623XXSP,2014-01-03 02:12:00,
2014-01-02 21:17:00,26.2,22.8,29.80,West,270,4.0,4.0,87,0.00,,,0.00,WUHU21623XXSP,2014-01-03 02:17:00,
2014-01-02 21:22:00,26.3,22.9,29.79,South,180,4.3,4.3,87,0.00,,,0.00,WUHU21623XXSP,2014-01-03 02:22:00,
2014-01-02 21:27:00,26.3,22.9,29.79,NNE,22,13.4,13.4,87,0.00,,,0.00,WUHU21623XXSP,2014-01-03 02:27:00,
2014-01-02 21:32:00,26.3,23.0,29.78,NW,315,2.5,13.4,87,0.00,,,0.00,WUHU21623XXSP,2014-01-03 02:32:00,
2014-01-02 21:37:00,26.4,23.0,29.78,East,90,5.4,5.4,87,0.00,,,0.00,WUHU21623XXSP,2014-01-03 02:37:00,
2014-01-02 21:42:00,26.3,22.9,29.77,ESE,112,3.1,5.4,87,0.00,,,0.00,WUHU21623XXSP,2014-01-03 02:42:00,
2014-01-02 21:47:00,26.4,23.0,29.76,NE,45,3.1,4.0,87,0.00,,,0.00,WUHU21623XXSP,2014-01-03 02:47:00,
2014-01-02 21:52:00,26.2,22.8,29.75,East,90,4.0,8.1,87,0.00,,,0.00,WUHU21623XXSP,2014-01-03 02:52:00,
2014-01-02 21:57:00,26.3,22.9,29.75,NE,45,5.4,8.1,87,0.00,,,0.00,WUHU21623XXSP,2014-01-03 02:57:00,
2014-01-02 22:02:00,26.3,22.9,29.75,West,270,2.5,5.4,87,0.00,,,0.00,WUHU21623XXSP,2014-01-03 03:02:00,
2014-01-02 22:07:00,26.1,22.8,29.74,NE,45,2.9,6.5,87,0.00,,,0.00,WUHU21623XXSP,2014-01-03 03:07:00,
2014-01-02 22:12:00,26.2,22.8,29.75,East,90,1.8,6.5,87,0.00,,,0.00,WUHU21623XXSP,2014-01-03 03:12:00,
2014-01-02 22:17:00,26.0,22.6,29.74,SSW,202,3.8,3.8,87,0.00,,,0.00,WUHU21623XXSP,2014-01-03 03:17:00,
2014-01-02 22:22:00,26.1,22.7,29.73,North,0,0.0,5.8,87,0.00,,,0.00,WUHU21623XXSP,2014-01-03 03:22:00,
2014-01-02 22:27:00,26.1,22.7,29.73,East,90,2.0,5.8,87,0.00,,,0.00,WUHU21623XXSP,2014-01-03 03:27:00,
2014-01-02 22:32:00,26.2,22.8,29.73,NNE,22,3.4,3.4,87,0.00,,,0.00,WUHU21623XXSP,2014-01-03 03:32:00,
2014-01-02 22:37:00,26.2,22.8,29.74,SW,225,5.8,5.8,87,0.00,,,0.00,WUHU21623XXSP,2014-01-03 03:37:00,
2014-01-02 22:42:00,26.0,22.7,29.73,WSW,247,2.2,5.8,87,0.00,,,0.00,WUHU21623XXSP,2014-01-03 03:42:00,
2014-01-02 22:47:00,26.0,22.6,29.72,West,270,0.0,5.8,87,0.00,,,0.00,WUHU21623XXSP,2014-01-03 03:47:00,
2014-01-02 22:52:00,25.6,22.3,29.72,East,90,3.6,4.9,87,0.00,,,0.00,WUHU21623XXSP,2014-01-03 03:52:00,
2014-01-02 22:57:00,25.5,22.1,29.72,NNE,22,4.0,5.6,87,0.00,,,0.00,WUHU21623XXSP,2014-01-03 03:57:00,
2014-01-02 23:02:00,25.5,22.1,29.72,WNW,292,0.0,5.6,87,0.00,,,0.00,WUHU21623XXSP,2014-01-03 04:02:00,
2014-01-02 23:07:00,25.2,21.9,29.72,North,0,2.9,6.5,87,0.00,,,0.00,WUHU21623XXSP,2014-01-03 04:07:00,
2014-01-02 23:12:00,25.2,21.8,29.71,NNW,337,2.0,6.5,87,0.00,,,0.00,WUHU21623XXSP,2014-01-03 04:12:00,
2014-01-02 23:17:00,24.9,21.2,29.71,NNE,22,11.0,11.0,86,0.00,,,0.00,WUHU21623XXSP,2014-01-03 04:17:00,
2014-01-02 23:22:00,24.8,21.2,29.71,NNE,22,2.9,11.0,86,0.00,,,0.00,WUHU21623XXSP,2014-01-03 04:22:00,
2014-01-02 23:27:00,24.4,20.7,29.71,NNE,22,7.8,7.8,86,0.00,,,0.00,WUHU21623XXSP,2014-01-03 04:27:00,
2014-01-02 23:32:00,24.3,20.7,29.71,NNE,22,7.2,7.8,86,0.00,,,0.00,WUHU21623XXSP,2014-01-03 04:32:00,
2014-01-02 23:37:00,24.1,20.5,29.70,ENE,67,7.2,8.7,86,0.00,,,0.00,WUHU21623XXSP,2014-01-03 04:37:00,
2014-01-02 23:42:00,23.7,20.1,29.71,NE,45,4.9,8.7,86,0.00,,,0.00,WUHU21623XXSP,2014-01-03 04:42:00,
2014-01-02 23:47:00,23.7,20.1,29.71,SE,135,3.1,5.1,86,0.00,,,0.00,WUHU21623XXSP,2014-01-03 04:47:00,
2014-01-02 23:52:00,23.4,19.8,29.71,South,180,4.3,4.3,86,0.00,,,0.00,WUHU21623XXSP,2014-01-03 04:52:00,
2014-01-02 23:57:00,23.2,19.6,29.71,NNE,22,3.4,4.3,86,0.00,,,0.00,WUHU21623XXSP,2014-01-03 04:57:00,